KCHD/CHD METAR and TAF weather

Enter ICAO airport designator
Station Type Date Time Source
KCHD METAR 2019/11/20 23:47 UTC NOAA

KCHD 202347Z 16020KT 10SM VCSH SCT040 BKN070 BKN120 19/13 A2964


Station Type Date Time Source
KCHD Decoded METAR 2019/11/20 23:47 UTC NOAA

Chandler, Chandler Municipal Airport, AZ, United States (KCHD) 33-16-09N 111-48-40W
Nov 20, 2019 - 06:47 PM EST / 2019.11.20 2347 UTC
Wind: from the SSE (160 degrees) at 23 MPH (20 KT):0
Visibility: 10 mile(s):0
Sky conditions: mostly cloudy
Weather: showers in the vicinity
Temperature: 66 F (19 C)
Dew Point: 55 F (13 C)
Relative Humidity: 68%
Pressure (altimeter): 29.64 in. Hg (1003 hPa)
ob: KCHD 202347Z 16020KT 10SM VCSH SCT040 BKN070 BKN120 19/13 A2964
cycle: 0

Station Type Date Time Source
KCHD TAF UTC NOAA

Error!

Example: see airport list